Time;durP1;ratioP1;P1;durP2;ratioP2;P2;SDS_P1;SDS_P2;PMS_P1;PMS_P2;Temp;Humidity;BMP_temperature;BMP_pressure;BME280_temperature;BME280_humidity;BME280_pressure;Samples;Min_cycle;Max_cycle;Signal;HPM_P1;HPM_P2
2022/06/13 00:01:19;;;;;;;;;;;15.60;99.90;;;;;;5090774;28;20036;-65
2022/06/13 00:03:46;;;;;;;4.68;1.90;;;15.60;99.90;;;;;;5096117;28;20284;-65
2022/06/13 00:06:13;;;;;;;2.92;2.28;;;15.60;99.90;;;;;;5097258;28;20093;-64
2022/06/13 00:08:40;;;;;;;3.65;2.33;;;15.70;99.90;;;;;;5091182;28;20040;-65
2022/06/13 00:11:11;;;;;;;4.60;2.05;;;15.60;99.90;;;;;;5090641;28;20381;-65
2022/06/13 00:13:39;;;;;;;5.53;2.28;;;15.50;99.90;;;;;;5100067;28;20048;-65
2022/06/13 00:16:06;;;;;;;2.60;2.25;;;15.30;99.90;;;;;;5090681;28;20048;-65
2022/06/13 00:18:32;;;;;;;2.60;1.88;;;15.20;99.90;;;;;;5090901;28;20385;-65
2022/06/13 00:20:59;;;;;;;4.60;2.33;;;15.10;99.90;;;;;;5093440;28;20036;-65
2022/06/13 00:23:26;;;;;;;2.78;1.67;;;15.10;99.90;;;;;;5102868;28;20040;-65
2022/06/13 00:25:53;;;;;;;2.55;1.77;;;15.10;99.90;;;;;;5091393;28;20044;-65
2022/06/13 00:28:20;;;;;;;7.07;2.42;;;15.10;99.90;;;;;;5090628;28;20101;-64
2022/06/13 00:30:46;;;;;;;6.70;2.45;;;15.10;99.90;;;;;;5098815;28;20047;-64
2022/06/13 00:33:13;;;;;;;3.22;2.08;;;15.00;99.90;;;;;;5090958;28;20048;-65
2022/06/13 00:35:40;;;;;;;3.90;2.33;;;14.90;99.90;;;;;;5090089;28;20120;-65
2022/06/13 00:38:07;;;;;;;2.45;2.10;;;14.70;99.90;;;;;;5093499;28;20036;-65
2022/06/13 00:40:34;;;;;;;4.57;2.55;;;14.70;99.90;;;;;;5105583;28;20039;-65
2022/06/13 00:43:02;;;;;;;5.75;2.28;;;14.70;99.90;;;;;;5094500;28;20165;-64
2022/06/13 00:45:34;;;;;;;3.60;2.03;;;14.70;99.90;;;;;;5094243;28;20089;-65
2022/06/13 00:48:01;;;;;;;5.57;2.10;;;14.60;99.90;;;;;;5094967;28;20055;-65
2022/06/13 00:50:40;;;;;;;4.25;2.30;;;14.70;99.90;;;;;;5101731;28;20417;-64
2022/06/13 00:53:09;;;;;;;5.22;2.33;;;14.70;99.90;;;;;;5094388;28;20454;-65
2022/06/13 00:55:46;;;;;;;3.25;2.45;;;14.70;99.90;;;;;;5094981;28;20178;-64
2022/06/13 00:58:13;;;;;;;9.18;3.00;;;14.70;99.90;;;;;;5106007;28;20101;-65
2022/06/13 01:00:43;;;;;;;6.30;2.42;;;14.80;99.90;;;;;;5095994;28;20043;-64
2022/06/13 01:03:11;;;;;;;3.05;2.00;;;14.70;99.90;;;;;;5093851;28;20044;-65
2022/06/13 01:05:41;;;;;;;3.85;1.90;;;14.50;99.90;;;;;;5101057;28;20499;-65
2022/06/13 01:08:10;;;;;;;5.63;2.40;;;14.40;99.90;;;;;;5100897;28;20048;-65
2022/06/13 01:13:47;;;;;;;4.95;2.03;;;14.50;99.90;;;;;;5093977;28;20070;-64
2022/06/13 01:16:26;;;;;;;3.92;2.20;;;14.80;99.90;;;;;;5075509;28;20501;-64
2022/06/13 01:19:20;;;;;;;3.67;2.20;;;14.90;99.90;;;;;;5110180;22;20047;-64
2022/06/13 01:21:54;;;;;;;4.25;2.33;;;14.90;99.90;;;;;;5094471;28;20093;-64
2022/06/13 01:25:02;;;;;;;7.45;2.33;;;14.80;99.90;;;;;;5109489;28;20088;-64
2022/06/13 01:27:44;;;;;;;2.97;2.00;;;14.80;99.90;;;;;;5108795;28;20442;-64
2022/06/13 01:30:30;;;;;;;4.38;2.08;;;14.90;99.90;;;;;;5106862;28;20035;-64
2022/06/13 01:33:21;;;;;;;3.55;1.98;;;15.00;99.90;;;;;;5113672;28;20084;-64
2022/06/13 01:36:15;;;;;;;3.63;2.22;;;15.00;99.90;;;;;;5112761;28;20044;-64
2022/06/13 01:39:09;;;;;;;3.88;2.22;;;15.10;99.90;;;;;;5105432;28;20047;-64
2022/06/13 01:42:11;;;;;;;2.08;1.88;;;15.00;99.90;;;;;;5113242;28;20047;-64
2022/06/13 01:44:47;;;;;;;3.13;2.20;;;15.10;99.90;;;;;;5111611;28;20564;-64
2022/06/13 01:47:31;;;;;;;2.38;2.10;;;15.20;99.90;;;;;;5107107;28;20093;-65
2022/06/13 01:49:58;;;;;;;5.38;2.22;;;15.20;99.90;;;;;;5113058;28;20148;-64
2022/06/13 01:53:01;;;;;;;6.68;2.25;;;15.30;99.90;;;;;;5112424;28;20043;-65
2022/06/13 01:55:31;;;;;;;3.25;1.83;;;15.30;99.90;;;;;;5101424;28;20036;-64
2022/06/13 01:58:19;;;;;;;4.00;2.47;;;15.30;99.90;;;;;;5092897;28;20036;-64
2022/06/13 02:01:03;;;;;;;2.97;2.05;;;15.30;99.90;;;;;;5092500;28;20509;-65
2022/06/13 02:03:35;;;;;;;2.53;2.03;;;15.40;99.90;;;;;;5101108;28;20435;-64
2022/06/13 02:06:26;;;;;;;3.42;2.10;;;15.40;99.90;;;;;;5092915;28;20047;-64
2022/06/13 02:09:02;;;;;;;2.88;2.00;;;15.30;99.90;;;;;;5093036;28;20040;-64
2022/06/13 02:11:31;;;;;;;4.70;2.55;;;15.40;99.90;;;;;;5098297;28;20036;-64
2022/06/13 02:14:20;;;;;;;3.85;2.30;;;15.40;99.90;;;;;;5101150;28;20508;-64
2022/06/13 02:16:52;;;;;;;4.40;2.65;;;15.50;99.90;;;;;;5092260;28;20043;-65
2022/06/13 02:19:41;;;;;;;5.28;2.75;;;15.50;99.90;;;;;;5092640;28;20407;-64
2022/06/13 02:22:20;;;;;;;4.03;2.65;;;15.50;99.90;;;;;;5104421;28;20044;-64
2022/06/13 02:25:01;;;;;;;4.30;2.78;;;15.50;99.90;;;;;;5111370;28;20043;-64
2022/06/13 02:27:35;;;;;;;6.47;2.97;;;15.40;99.90;;;;;;5112965;28;20092;-63
2022/06/13 02:30:18;;;;;;;10.38;2.85;;;15.40;99.90;;;;;;5111130;28;20084;-63
2022/06/13 02:32:58;;;;;;;4.38;2.80;;;15.30;99.90;;;;;;5104157;28;20039;-63
2022/06/13 02:35:27;;;;;;;4.68;2.80;;;15.30;99.90;;;;;;5112669;28;20040;-63
2022/06/13 02:38:21;;;;;;;6.72;2.80;;;15.30;99.90;;;;;;5111469;28;20031;-63
2022/06/13 02:40:56;;;;;;;3.70;2.80;;;15.30;99.90;;;;;;5085501;28;20048;-63
2022/06/13 02:43:58;;;;;;;3.70;2.75;;;15.50;99.90;;;;;;5092525;28;20044;-63
2022/06/13 02:46:50;;;;;;;5.47;2.70;;;15.70;99.90;;;;;;5092407;28;20090;-63
2022/06/13 02:49:29;;;;;;;6.57;2.97;;;15.60;99.90;;;;;;5091928;28;20040;-63
2022/06/13 02:52:03;;;;;;;4.38;2.95;;;15.60;99.90;;;;;;5091703;28;20048;-63
2022/06/13 02:54:45;;;;;;;4.07;3.08;;;15.60;99.90;;;;;;5092518;28;20056;-63
2022/06/13 02:57:31;;;;;;;3.90;3.13;;;15.50;99.90;;;;;;5100771;28;20063;-63
2022/06/13 03:00:25;;;;;;;3.15;2.85;;;15.40;99.90;;;;;;5090810;28;20037;-63
2022/06/13 03:03:01;;;;;;;4.25;3.20;;;15.30;99.90;;;;;;5095643;28;20191;-63
2022/06/13 03:05:50;;;;;;;5.53;3.80;;;15.10;99.90;;;;;;5102794;28;20054;-63
2022/06/13 03:08:36;;;;;;;11.32;4.57;;;15.00;99.90;;;;;;5112341;28;20051;-63
2022/06/13 03:11:07;;;;;;;7.00;4.43;;;14.80;99.90;;;;;;5110654;28;20096;-63
2022/06/13 03:13:40;;;;;;;5.57;4.03;;;14.70;99.90;;;;;;5103714;28;20599;-63
2022/06/13 03:16:15;;;;;;;9.88;4.03;;;14.60;99.90;;;;;;5112096;28;20100;-63
2022/06/13 03:18:51;;;;;;;5.15;4.20;;;14.60;99.90;;;;;;5111889;28;20047;-63
2022/06/13 03:21:27;;;;;;;6.60;3.88;;;14.50;99.90;;;;;;5109834;28;20796;-63
2022/06/13 03:24:10;;;;;;;5.07;3.75;;;14.60;99.90;;;;;;5102965;28;20066;-63
2022/06/13 03:26:44;;;;;;;6.57;3.95;;;14.60;99.90;;;;;;5111151;28;20096;-63
2022/06/13 03:29:28;;;;;;;4.18;3.53;;;14.60;99.90;;;;;;5111166;28;20075;-63
2022/06/13 03:32:02;;;;;;;7.20;3.88;;;14.60;99.90;;;;;;5106705;28;20066;-63
2022/06/13 03:34:37;;;;;;;8.00;4.55;;;14.60;99.90;;;;;;5107218;28;20046;-63
2022/06/13 03:37:14;;;;;;;11.50;3.85;;;14.60;99.90;;;;;;5111340;28;20035;-63
2022/06/13 03:40:14;;;;;;;5.55;3.65;;;14.70;99.90;;;;;;5111130;28;20113;-63
2022/06/13 03:43:03;;;;;;;6.38;3.60;;;14.90;99.90;;;;;;5093568;28;20589;-63
2022/06/13 03:45:43;;;;;;;4.75;3.63;;;14.90;99.90;;;;;;5110993;28;20093;-63
2022/06/13 03:48:25;;;;;;;4.25;3.20;;;15.00;99.90;;;;;;5101844;28;20040;-63
2022/06/13 03:51:02;;;;;;;5.28;3.67;;;15.00;99.90;;;;;;5101337;28;20052;-63
2022/06/13 03:53:47;;;;;;;7.55;3.60;;;14.80;99.90;;;;;;5106948;28;20483;-63
2022/06/13 03:56:19;;;;;;;5.55;3.35;;;14.80;99.90;;;;;;5110980;28;20044;-63
2022/06/13 03:58:48;;;;;;;4.28;3.78;;;14.70;99.90;;;;;;5109496;28;20484;-63
2022/06/13 04:01:25;;;;;;;5.25;3.80;;;14.70;99.90;;;;;;5102002;28;20528;-63
2022/06/13 04:03:54;;;;;;;4.75;3.88;;;14.70;99.90;;;;;;5110902;28;20074;-63
2022/06/13 04:06:39;;;;;;;5.22;3.92;;;14.80;99.90;;;;;;5110632;28;20048;-63
2022/06/13 04:09:20;;;;;;;6.75;3.67;;;14.80;99.90;;;;;;5109457;28;20085;-63
2022/06/13 04:11:52;;;;;;;6.53;4.18;;;14.80;99.90;;;;;;5104191;28;20572;-62
2022/06/13 04:14:54;;;;;;;11.82;5.85;;;14.70;99.90;;;;;;5114258;28;20059;-62
2022/06/13 04:17:34;;;;;;;9.68;5.47;;;14.70;99.90;;;;;;5109098;28;20028;-62
2022/06/13 04:20:30;;;;;;;7.90;5.03;;;14.60;99.90;;;;;;5094304;28;20036;-62
2022/06/13 04:23:14;;;;;;;12.48;4.60;;;14.60;99.90;;;;;;5072457;28;20462;-63
2022/06/13 04:25:49;;;;;;;7.18;4.50;;;14.70;99.90;;;;;;5098642;28;20043;-62
2022/06/13 04:28:22;;;;;;;5.68;3.80;;;14.70;99.90;;;;;;5105158;28;20479;-63
2022/06/13 04:30:52;;;;;;;7.07;4.63;;;14.80;99.90;;;;;;5105492;28;20040;-63
2022/06/13 04:33:26;;;;;;;5.60;3.95;;;14.90;99.90;;;;;;5106639;28;20036;-62
2022/06/13 04:35:54;;;;;;;4.75;4.03;;;15.00;99.90;;;;;;5104604;28;20081;-63
2022/06/13 04:38:23;;;;;;;5.78;4.32;;;15.10;99.90;;;;;;5104099;28;20035;-63
2022/06/13 04:41:00;;;;;;;5.78;4.30;;;15.10;99.90;;;;;;5105015;28;20040;-62
2022/06/13 04:43:33;;;;;;;7.70;4.38;;;15.10;99.90;;;;;;5106374;28;20727;-62
2022/06/13 04:46:02;;;;;;;6.47;4.38;;;15.00;99.90;;;;;;5108269;28;20474;-62
2022/06/13 04:48:30;;;;;;;8.25;4.25;;;15.00;99.90;;;;;;5103157;28;20048;-63
2022/06/13 04:51:02;;;;;;;10.95;5.05;;;14.90;99.90;;;;;;5101513;28;20082;-62
2022/06/13 04:53:42;;;;;;;5.70;4.22;;;14.80;99.90;;;;;;5105597;28;20097;-63
2022/06/13 04:56:08;;;;;;;8.38;4.05;;;14.70;99.90;;;;;;5106656;28;20039;-64
2022/06/13 04:58:38;;;;;;;9.45;4.43;;;14.60;99.90;;;;;;5115049;28;20044;-65
2022/06/13 05:01:17;;;;;;;7.18;4.35;;;14.70;99.90;;;;;;5108840;28;20093;-65
2022/06/13 05:03:47;;;;;;;4.18;3.78;;;14.70;99.90;;;;;;5096138;28;20424;-65
2022/06/13 05:06:21;;;;;;;4.25;3.55;;;14.80;99.90;;;;;;5094254;28;20055;-65
2022/06/13 05:08:55;;;;;;;5.43;3.50;;;14.90;99.90;;;;;;5105911;28;20043;-65
2022/06/13 05:11:27;;;;;;;6.07;3.47;;;15.00;99.90;;;;;;5109134;28;20096;-65
2022/06/13 05:14:01;;;;;;;10.68;3.78;;;15.10;99.90;;;;;;5114594;28;20054;-65
2022/06/13 05:16:59;;;;;;;6.43;4.07;;;15.10;99.90;;;;;;5112932;28;20048;-65
2022/06/13 05:19:40;;;;;;;5.47;4.22;;;15.20;99.90;;;;;;5104678;28;20123;-65
2022/06/13 05:22:39;;;;;;;5.63;3.38;;;15.20;99.90;;;;;;5105250;28;20036;-65
2022/06/13 05:25:28;;;;;;;5.00;3.25;;;15.20;99.90;;;;;;5090821;28;20048;-65
2022/06/13 05:27:54;;;;;;;;;;;15.30;99.90;;;;;;5102762;28;20055;-64
2022/06/13 05:30:23;;;;;;;5.07;3.22;;;15.30;99.90;;;;;;5093312;28;19924;-65
2022/06/13 05:32:50;;;;;;;4.53;3.33;;;15.30;99.90;;;;;;5094436;28;20044;-65
2022/06/13 05:35:26;;;;;;;4.95;3.25;;;15.40;99.90;;;;;;5107628;28;20044;-65
2022/06/13 05:37:54;;;;;;;4.80;3.25;;;15.50;99.90;;;;;;5113413;28;20044;-65
2022/06/13 05:40:22;;;;;;;5.78;3.10;;;15.70;99.90;;;;;;5113611;28;20043;-65
2022/06/13 05:42:50;;;;;;;6.78;3.08;;;15.80;99.90;;;;;;5112554;28;20035;-65
2022/06/13 05:45:18;;;;;;;;;;;15.90;99.90;;;;;;5107143;28;20552;-65
2022/06/13 05:48:11;;;;;;;8.38;3.17;;;15.90;99.90;;;;;;5106588;28;19919;-65
2022/06/13 05:50:38;;;;;;;4.95;2.90;;;15.90;99.90;;;;;;5049149;28;20045;-66
2022/06/13 05:53:05;;;;;;;4.22;2.97;;;15.80;99.90;;;;;;5051379;28;20053;-65
2022/06/13 05:55:32;;;;;;;3.97;3.03;;;15.80;99.90;;;;;;5048873;28;20045;-65
2022/06/13 05:58:01;;;;;;;6.78;4.07;;;15.70;99.90;;;;;;5044968;28;20116;-65
2022/06/13 06:00:33;;;;;;;6.30;4.10;;;15.70;99.90;;;;;;5032759;28;20052;-65
2022/06/13 06:03:00;;;;;;;5.60;4.45;;;15.70;99.90;;;;;;5033496;28;20100;-65
2022/06/13 06:05:27;;;;;;;6.60;4.95;;;15.60;99.90;;;;;;5029743;28;20054;-65
2022/06/13 06:07:53;;;;;;;10.25;4.88;;;15.70;99.90;;;;;;5028524;28;20508;-65
2022/06/13 06:10:25;;;;;;;5.97;4.10;;;15.70;99.90;;;;;;5031684;28;20045;-65
2022/06/13 06:12:52;;;;;;;9.93;4.43;;;15.90;99.90;;;;;;5012906;28;20108;-65
2022/06/13 06:15:18;;;;;;;5.22;3.50;;;15.90;99.90;;;;;;5013728;28;20096;-65
2022/06/13 06:17:45;;;;;;;9.00;3.58;;;16.00;99.90;;;;;;5024467;28;20083;-65
2022/06/13 06:20:18;;;;;;;3.50;3.17;;;16.10;99.90;;;;;;5031483;28;20111;-66
2022/06/13 06:22:45;;;;;;;4.75;3.47;;;16.10;99.90;;;;;;5032327;28;20042;-66
2022/06/13 06:25:13;;;;;;;6.10;3.50;;;16.20;99.90;;;;;;5028998;28;20048;-66
2022/06/13 06:27:39;;;;;;;6.38;4.28;;;16.20;99.90;;;;;;5032444;28;20107;-66
2022/06/13 06:30:07;;;;;;;10.75;3.50;;;16.20;99.90;;;;;;5031475;28;20049;-66
2022/06/13 06:32:34;;;;;;;4.43;3.40;;;16.30;99.90;;;;;;5032200;28;20049;-66
2022/06/13 06:35:01;;;;;;;6.68;3.67;;;16.40;99.90;;;;;;5028934;28;20563;-66
2022/06/13 06:37:27;;;;;;;6.22;3.60;;;16.30;99.90;;;;;;5031696;28;20083;-66
2022/06/13 06:39:58;;;;;;;4.43;2.92;;;16.30;99.90;;;;;;5031692;28;20041;-66
2022/06/13 06:42:24;;;;;;;8.00;3.22;;;16.40;99.90;;;;;;5031977;28;20103;-66
2022/06/13 06:45:12;;;;;;;7.35;3.70;;;16.40;99.90;;;;;;5025720;28;20045;-66
2022/06/13 06:47:39;;;;;;;5.10;3.88;;;16.40;99.90;;;;;;5032076;28;20781;-66
2022/06/13 06:50:14;;;;;;;5.85;3.67;;;16.60;99.90;;;;;;5031263;28;20103;-66
2022/06/13 06:52:41;;;;;;;5.53;3.42;;;16.90;99.90;;;;;;5026763;28;20103;-66
2022/06/13 07:00:46;;;;;;;8.50;3.72;;;17.30;99.90;;;;;;5030417;28;20457;-66
2022/06/13 07:03:13;;;;;;;5.57;3.25;;;17.30;99.90;;;;;;5031821;28;20042;-66
2022/06/13 07:05:40;;;;;;;7.53;3.80;;;17.30;99.90;;;;;;5031524;28;20080;-66
2022/06/13 07:08:12;;;;;;;7.32;3.60;;;17.40;99.90;;;;;;5029754;28;20044;-66
2022/06/13 07:10:39;;;;;;;3.75;3.42;;;17.20;99.90;;;;;;5030472;28;20097;-66
2022/06/13 07:13:05;;;;;;;4.35;3.70;;;17.00;99.90;;;;;;5031197;28;20451;-66
2022/06/13 07:15:32;;;;;;;18.75;4.53;;;16.90;99.90;;;;;;5030274;28;20529;-66
2022/06/13 07:17:59;;;;;;;10.45;3.90;;;16.70;99.90;;;;;;5031397;28;20037;-66
2022/06/13 07:20:25;;;;;;;7.63;4.72;;;16.60;99.90;;;;;;5080490;22;20051;-66
2022/06/13 07:22:55;;;;;;;6.70;4.82;;;16.50;99.90;;;;;;5069164;28;20060;-67
2022/06/13 07:25:25;;;;;;;6.35;4.57;;;16.50;99.90;;;;;;5060915;28;20045;-66
2022/06/13 07:27:53;;;;;;;7.72;5.32;;;16.40;99.90;;;;;;5056414;28;20059;-67
2022/06/13 07:30:23;;;;;;;8.63;5.53;;;16.40;99.90;;;;;;5046386;28;20443;-66
2022/06/13 07:32:51;;;;;;;8.63;5.70;;;16.40;99.90;;;;;;5033776;28;20159;-66
2022/06/13 07:35:20;;;;;;;7.97;4.97;;;16.50;99.90;;;;;;5052371;28;20501;-67
2022/06/13 07:40:33;;;;;;;10.13;5.07;;;16.60;99.90;;;;;;5054136;28;20048;-66
2022/06/13 07:43:02;;;;;;;9.23;4.53;;;16.60;99.90;;;;;;5049761;28;20041;-66
2022/06/13 07:45:33;;;;;;;5.57;4.47;;;16.70;99.90;;;;;;5054374;28;20484;-66
2022/06/13 07:48:20;;;;;;;5.75;4.88;;;16.90;99.90;;;;;;5057377;28;20048;-65
2022/06/13 07:50:47;;;;;;;10.02;4.93;;;16.90;99.90;;;;;;5077303;28;20412;-66
2022/06/13 07:53:14;;;;;;;7.95;4.93;;;17.00;99.90;;;;;;5077338;28;20041;-66
2022/06/13 07:56:02;;;;;;;7.30;4.00;;;17.20;99.90;;;;;;5069729;28;20036;-66
2022/06/13 07:58:32;;;;;;;7.32;4.45;;;17.60;99.90;;;;;;5077691;28;20077;-66
2022/06/13 08:00:59;;;;;;;8.40;4.82;;;17.70;99.90;;;;;;5071021;28;20415;-66
2022/06/13 08:03:29;;;;;;;6.03;5.38;;;17.70;99.90;;;;;;5076877;28;20047;-67
2022/06/13 08:05:57;;;;;;;7.68;4.43;;;17.90;99.90;;;;;;5057612;28;20052;-67
2022/06/13 08:08:25;;;;;;;6.70;5.30;;;18.60;99.90;;;;;;5057552;28;20049;-68
2022/06/13 08:10:53;;;;;;;5.78;4.47;;;19.00;99.90;;;;;;5072645;28;20053;-67
2022/06/13 08:13:21;;;;;;;6.13;3.70;;;18.90;99.90;;;;;;5062649;28;20103;-68
2022/06/13 08:15:48;;;;;;;4.15;3.55;;;19.00;99.90;;;;;;5057542;28;20090;-67
2022/06/13 08:18:15;;;;;;;;;;;19.00;99.90;;;;;;5060170;28;20409;-67
2022/06/13 08:20:49;;;;;;;3.75;3.42;;;19.00;99.90;;;;;;5074659;28;19927;-67
2022/06/13 08:23:17;;;;;;;5.47;3.28;;;19.10;99.90;;;;;;5057293;28;20049;-67
2022/06/13 08:25:44;;;;;;;4.00;3.38;;;19.00;99.90;;;;;;5057363;28;20045;-67
2022/06/13 08:28:12;;;;;;;7.57;3.95;;;18.90;99.90;;;;;;5059179;28;20032;-66
2022/06/13 08:30:40;;;;;;;;;;;18.80;99.90;;;;;;5059929;28;20060;-66
2022/06/13 08:33:07;;;;;;;4.70;3.28;;;18.80;99.90;;;;;;5057201;28;19928;-66
2022/06/13 08:35:34;;;;;;;5.65;3.58;;;18.80;99.90;;;;;;5070388;28;20040;-67
2022/06/13 08:38:04;;;;;;;8.63;4.03;;;18.90;99.90;;;;;;5064680;28;20049;-67
2022/06/13 08:40:40;;;;;;;5.72;4.60;;;19.00;99.90;;;;;;5056914;28;20045;-67
2022/06/13 08:43:19;;;;;;;8.52;3.70;;;19.20;99.90;;;;;;5057248;28;20098;-67
2022/06/13 08:46:00;;;;;;;8.70;4.07;;;19.30;99.90;;;;;;5074927;28;20090;-67
2022/06/13 08:48:39;;;;;;;4.40;3.50;;;19.00;99.90;;;;;;5057218;28;20110;-67
2022/06/13 08:51:12;;;;;;;5.55;4.13;;;18.60;99.90;;;;;;5056996;28;20041;-67
2022/06/13 08:54:07;;;;;;;4.68;3.60;;;18.30;99.90;;;;;;5064714;28;20055;-68
2022/06/13 08:56:36;;;;;;;16.10;3.15;;;18.20;99.90;;;;;;5065516;28;20067;-67
2022/06/13 08:59:24;;;;;;;6.18;3.08;;;18.10;99.90;;;;;;5051862;28;20045;-67
2022/06/13 09:02:18;;;;;;;6.13;3.90;;;18.00;99.90;;;;;;5060567;28;20041;-67
2022/06/13 09:05:03;;;;;;;6.70;3.42;;;17.80;99.90;;;;;;5049798;28;20558;-67
2022/06/13 09:07:39;;;;;;;4.68;3.70;;;17.70;99.90;;;;;;5053916;28;20048;-67
2022/06/13 09:10:14;;;;;;;5.20;3.92;;;17.60;99.90;;;;;;5060405;28;20045;-67
2022/06/13 09:12:57;;;;;;;12.25;4.80;;;17.50;99.90;;;;;;5064194;28;20049;-66
2022/06/13 09:15:39;;;;;;;6.38;4.88;;;17.40;99.90;;;;;;5053443;28;20053;-66
2022/06/13 09:18:13;;;;;;;7.47;4.72;;;17.20;99.90;;;;;;5055066;28;20520;-66
2022/06/13 09:20:53;;;;;;;7.53;4.60;;;17.10;99.90;;;;;;5071674;28;20045;-67
2022/06/13 09:23:39;;;;;;;8.07;4.53;;;17.00;99.90;;;;;;5053668;28;20045;-68
2022/06/13 09:26:20;;;;;;;11.52;6.45;;;17.00;99.90;;;;;;5052413;28;20037;-67
2022/06/13 09:29:05;;;;;;;8.30;5.22;;;17.00;99.90;;;;;;5061280;28;20054;-67
2022/06/13 09:31:48;;;;;;;10.00;6.40;;;16.90;99.90;;;;;;5064508;28;20448;-67
2022/06/13 09:34:25;;;;;;;12.95;7.05;;;17.00;99.90;;;;;;5053343;28;20099;-67
2022/06/13 09:36:52;;;;;;;10.68;6.63;;;17.00;99.90;;;;;;5058204;28;20094;-67
2022/06/13 09:39:19;;;;;;;8.00;6.00;;;17.10;99.90;;;;;;5066708;28;20671;-67
2022/06/13 09:42:04;;;;;;;9.55;6.40;;;17.30;99.90;;;;;;5052877;28;20044;-67
2022/06/13 09:44:53;;;;;;;10.10;6.00;;;17.70;99.90;;;;;;5051685;28;20049;-67
2022/06/13 09:47:31;;;;;;;13.30;5.55;;;18.40;99.90;;;;;;5067763;28;20078;-67
2022/06/13 09:50:06;;;;;;;9.10;4.90;;;19.10;99.90;;;;;;5052598;28;20048;-68
2022/06/13 09:52:49;;;;;;;8.77;5.28;;;19.30;99.90;;;;;;5053097;28;20045;-68
2022/06/13 09:55:25;;;;;;;8.57;5.60;;;19.10;99.90;;;;;;5068677;28;20635;-68
2022/06/13 09:58:07;;;;;;;6.50;5.13;;;18.90;99.90;;;;;;5053452;28;20493;-68
2022/06/13 10:00:48;;;;;;;8.77;6.00;;;18.60;99.90;;;;;;5052168;28;20114;-68
2022/06/13 10:03:38;;;;;;;8.93;5.82;;;18.40;99.90;;;;;;5067456;28;20033;-67
2022/06/13 10:06:50;;;;;;;11.07;6.35;;;18.20;99.90;;;;;;5052723;28;20052;-68
2022/06/13 10:09:30;;;;;;;9.68;7.13;;;18.00;99.90;;;;;;5049545;28;20064;-67
2022/06/13 10:12:06;;;;;;;15.48;7.85;;;17.80;99.90;;;;;;5068649;28;20052;-68
2022/06/13 10:15:10;;;;;;;9.65;7.22;;;17.80;99.90;;;;;;5055802;28;20098;-67
2022/06/13 10:18:15;;;;;;;8.82;6.93;;;18.00;99.90;;;;;;5052385;28;20119;-67
2022/06/13 10:21:07;;;;;;;11.10;7.78;;;18.40;99.90;;;;;;5028086;28;20036;-67
2022/06/13 10:23:47;;;;;;;15.30;7.88;;;18.50;99.90;;;;;;5067323;28;20044;-68
2022/06/13 10:26:22;;;;;;;8.98;7.63;;;18.60;99.90;;;;;;5066443;28;20040;-68
2022/06/13 10:29:12;;;;;;;12.93;7.15;;;18.80;99.90;;;;;;5069823;28;20511;-67
2022/06/13 10:31:57;;;;;;;10.93;6.97;;;19.00;99.90;;;;;;5062722;28;20103;-68
2022/06/13 10:34:36;;;;;;;15.32;7.70;;;19.40;99.90;;;;;;5056037;28;20076;-68
2022/06/13 10:37:41;;;;;;;7.80;6.45;;;19.60;99.90;;;;;;5071403;28;20094;-67
2022/06/13 10:40:11;;;;;;;13.40;6.82;;;19.60;99.90;;;;;;5055592;28;20762;-67
2022/06/13 10:42:38;;;;;;;8.38;6.57;;;19.50;99.90;;;;;;5072069;28;20072;-67
2022/06/13 10:45:11;;;;;;;10.05;6.75;;;19.30;99.90;;;;;;5053946;28;20041;-68
2022/06/13 10:48:08;;;;;;;9.48;7.38;;;19.10;99.90;;;;;;5070832;28;20443;-67
2022/06/13 10:50:41;;;;;;;12.82;7.70;;;18.90;99.90;;;;;;5061073;28;20608;-68
2022/06/13 10:53:19;;;;;;;8.88;7.40;;;18.70;99.90;;;;;;5071508;28;20048;-68
2022/06/13 10:55:46;;;;;;;12.38;7.95;;;18.60;99.90;;;;;;5069915;28;20048;-67
2022/06/13 10:58:58;;;;;;;12.05;8.35;;;18.50;99.90;;;;;;5051935;28;20049;-67
2022/06/13 11:01:31;;;;;;;11.13;7.68;;;18.40;99.90;;;;;;5053127;28;20412;-68
2022/06/13 11:04:17;;;;;;;9.60;7.10;;;18.30;99.90;;;;;;5071547;28;20072;-68
2022/06/13 11:06:48;;;;;;;12.02;8.70;;;18.20;99.90;;;;;;5061744;28;20045;-68
2022/06/13 11:09:37;;;;;;;14.13;9.93;;;18.20;99.90;;;;;;5051605;28;20049;-67
2022/06/13 11:12:24;;;;;;;16.35;9.73;;;18.20;99.90;;;;;;5068854;28;20046;-67
2022/06/13 11:23:45;;;;;;;13.15;10.68;;;18.20;99.90;;;;;;5047643;28;20045;-67
2022/06/13 11:28:59;;;;;;;11.30;8.00;;;18.80;99.90;;;;;;5067713;28;20105;-68
2022/06/13 11:31:28;;;;;;;12.70;8.00;;;19.20;99.90;;;;;;5044862;28;20052;-68
2022/06/13 11:33:55;;;;;;;10.32;7.90;;;19.50;99.90;;;;;;5060724;28;20428;-67
2022/06/13 11:36:26;;;;;;;;;;;20.00;99.90;;;;;;5062503;28;20131;-67
2022/06/13 11:39:02;;;;;;;6.93;4.10;;;20.50;99.90;;;;;;5066761;28;19974;-67
2022/06/13 11:41:42;;;;;;;5.85;4.35;;;20.90;99.90;;;;;;5062911;28;20044;-67
2022/06/13 11:44:19;;;;;;;4.75;3.33;;;21.10;99.90;;;;;;5062060;28;20041;-67
2022/06/13 11:46:59;;;;;;;4.63;3.17;;;21.70;99.90;;;;;;5066072;28;20040;-67
2022/06/13 11:49:35;;;;;;;3.55;3.25;;;22.40;99.90;;;;;;5044497;28;20402;-67
2022/06/13 11:53:35;;;;;;;7.10;3.28;;;22.60;99.90;;;;;;5059414;28;20037;-67
2022/06/13 11:55:01;;;;;;;7.15;3.50;;;22.70;99.90;;;;;;5063757;28;20509;-67
2022/06/13 11:57:34;;;;;;;5.20;3.47;;;22.30;99.90;;;;;;5066022;28;20090;-67
2022/06/13 12:00:16;;;;;;;4.45;3.47;;;21.80;99.90;;;;;;5061326;28;20028;-67
2022/06/13 12:02:51;;;;;;;4.45;3.33;;;21.60;99.90;;;;;;5059802;28;20052;-67
2022/06/13 12:05:34;;;;;;;5.13;3.47;;;21.80;99.90;;;;;;5068020;28;20117;-67
2022/06/13 12:08:14;;;;;;;8.57;3.90;;;22.00;99.90;;;;;;5061800;28;20086;-67
2022/06/13 12:11:22;;;;;;;3.55;2.80;;;22.40;99.90;;;;;;5061334;28;20052;-67
2022/06/13 12:13:51;;;;;;;6.03;3.20;;;22.20;99.90;;;;;;5061861;28;20067;-67
2022/06/13 12:16:24;;;;;;;4.72;2.97;;;22.20;99.90;;;;;;5046250;28;20106;-67
2022/06/13 12:19:10;;;;;;;5.32;3.00;;;22.40;99.90;;;;;;5061138;28;20040;-67
2022/06/13 12:22:02;;;;;;;3.97;3.15;;;22.50;99.90;;;;;;5064343;28;20045;-66
2022/06/13 12:24:45;;;;;;;3.50;2.83;;;22.00;99.90;;;;;;5051520;28;20036;-66
2022/06/13 12:27:42;;;;;;;3.80;2.97;;;21.90;99.90;;;;;;5061499;28;20094;-66
2022/06/13 12:30:15;;;;;;;4.85;2.97;;;22.20;99.90;;;;;;5066283;28;20036;-66
2022/06/13 12:33:17;;;;;;;3.33;2.28;;;22.30;99.90;;;;;;5068912;28;20052;-66
2022/06/13 12:36:11;;;;;;;4.35;2.33;;;22.40;99.90;;;;;;5065436;28;20044;-66
2022/06/13 12:39:04;;;;;;;3.92;2.42;;;22.80;99.90;;;;;;5048455;28;20523;-66
2022/06/13 12:41:52;;;;;;;5.45;2.40;;;23.30;99.90;;;;;;5070709;28;20055;-66
2022/06/13 12:44:38;;;;;;;5.15;2.63;;;23.30;99.90;;;;;;5065255;28;20043;-66
2022/06/13 12:47:15;;;;;;;4.22;2.20;;;23.20;99.90;;;;;;5065580;28;20489;-66
2022/06/13 12:50:02;;;;;;;4.90;2.33;;;23.50;99.90;;;;;;5069031;28;20075;-66
2022/06/13 12:52:44;;;;;;;3.42;2.33;;;23.00;99.90;;;;;;5065903;28;20033;-67
2022/06/13 12:55:38;;;;;;;2.85;2.03;;;23.30;99.90;;;;;;5065715;28;20552;-67
2022/06/13 12:58:36;;;;;;;3.80;1.98;;;23.70;99.90;;;;;;5069700;28;20389;-67
2022/06/13 13:01:14;;;;;;;2.97;2.00;;;24.20;99.90;;;;;;5058758;28;20046;-67
2022/06/13 13:03:50;;;;;;;2.90;1.40;;;24.10;99.90;;;;;;5065299;28;20119;-67
2022/06/13 13:06:54;;;;;;;4.93;2.08;;;23.70;99.90;;;;;;5069351;28;20039;-66
2022/06/13 13:09:20;;;;;;;2.17;1.77;;;23.40;99.90;;;;;;5068864;28;20041;-66
2022/06/13 13:11:59;;;;;;;4.40;2.33;;;22.90;99.90;;;;;;5073430;28;20098;-67
2022/06/13 13:14:39;;;;;;;5.32;1.80;;;22.60;99.90;;;;;;5073957;28;20048;-66
2022/06/13 13:17:20;;;;;;;5.50;1.77;;;22.50;99.90;;;;;;5068683;28;20044;-64
2022/06/13 13:20:38;;;;;;;2.63;1.70;;;22.40;99.90;;;;;;5057594;22;20562;-66
2022/06/13 13:23:07;;;;;;;3.17;2.00;;;22.20;99.90;;;;;;5046827;28;20048;-63
2022/06/13 13:25:50;;;;;;;4.80;1.60;;;21.80;99.90;;;;;;5052719;28;20060;-63
2022/06/13 13:28:27;;;;;;;3.22;1.95;;;21.70;99.90;;;;;;5051056;28;20037;-63
2022/06/13 13:31:19;;;;;;;2.50;1.67;;;21.90;99.90;;;;;;5052359;28;20044;-66
2022/06/13 13:33:58;;;;;;;3.83;1.83;;;22.40;99.90;;;;;;5053140;28;20045;-66
2022/06/13 13:36:43;;;;;;;7.32;2.03;;;22.70;99.90;;;;;;5053014;28;20587;-67
2022/06/13 13:39:18;;;;;;;2.47;1.67;;;22.80;99.90;;;;;;5045030;28;20117;-66
2022/06/13 13:41:50;;;;;;;3.67;1.80;;;22.70;99.90;;;;;;5050679;28;20444;-67
2022/06/13 13:44:35;;;;;;;4.32;2.17;;;22.70;99.90;;;;;;5052495;28;20160;-67
2022/06/13 13:47:10;;;;;;;4.93;1.63;;;22.60;99.90;;;;;;5048703;28;20099;-67
2022/06/13 13:49:55;;;;;;;2.10;1.40;;;23.10;99.90;;;;;;5043770;28;20094;-67
2022/06/13 13:52:33;;;;;;;8.25;2.05;;;23.50;99.90;;;;;;5051499;28;20452;-67
2022/06/13 13:55:14;;;;;;;6.32;1.60;;;23.90;99.90;;;;;;5052993;28;20049;-67
2022/06/13 13:57:50;;;;;;;5.82;1.70;;;24.10;99.90;;;;;;5043634;28;20103;-67
2022/06/13 14:00:47;;;;;;;3.08;1.77;;;24.10;99.90;;;;;;5046951;28;20123;-67
2022/06/13 14:03:32;;;;;;;4.15;1.70;;;23.90;99.90;;;;;;5053010;28;20398;-67